Time;durP1;ratioP1;P1;durP2;ratioP2;P2;SDS_P1;SDS_P2;PMS_P1;PMS_P2;Temp;Humidity;BMP_temperature;BMP_pressure;BME280_temperature;BME280_humidity;BME280_pressure;Samples;Min_cycle;Max_cycle;Signal;HPM_P1;HPM_P2
2021/05/25 00:01:09;;;;;;;14.65;9.30;;;;;;;12.96;73.06;101063.25;1625654;87;21073;-88
2021/05/25 00:03:35;;;;;;;11.90;9.55;;;;;;;12.21;73.21;100940.28;1621351;87;21121;-86
2021/05/25 00:06:02;;;;;;;13.78;9.88;;;;;;;12.94;73.37;101067.47;1612922;87;22282;-87
2021/05/25 00:08:29;;;;;;;23.35;14.10;;;;;;;12.92;73.31;101065.50;1617897;87;21088;-87
2021/05/25 00:10:55;;;;;;;23.95;16.48;;;;;;;12.91;73.22;101061.14;1620119;87;21064;-87
2021/05/25 00:13:23;;;;;;;22.40;19.48;;;;;;;12.92;73.12;101069.51;1659339;86;21051;-87
2021/05/25 00:15:53;;;;;;;21.82;19.45;;;;;;;12.87;73.25;101068.41;1664407;82;21171;-84
2021/05/25 00:18:21;;;;;;;24.02;15.05;;;;;;;12.79;73.53;101071.49;1658846;85;21081;-88
2021/05/25 00:20:49;;;;;;;19.75;12.98;;;;;;;12.73;73.73;101077.56;1666326;85;21208;-87
2021/05/25 00:23:15;;;;;;;15.50;10.40;;;;;;;12.74;73.80;101070.39;1638281;85;21279;-88
2021/05/25 00:25:43;;;;;;;16.27;9.25;;;;;;;12.78;73.59;101073.01;1626695;87;21124;-86
2021/05/25 00:28:10;;;;;;;17.27;10.70;;;;;;;12.84;73.60;101070.92;1626841;87;21125;-87
2021/05/25 00:30:36;;;;;;;14.98;9.60;;;;;;;12.85;73.45;101067.25;1664547;85;21167;-86
2021/05/25 00:33:02;;;;;;;10.35;8.95;;;;;;;12.83;73.49;101069.28;1651838;86;21101;-87
2021/05/25 00:35:34;;;;;;;16.77;9.35;;;;;;;12.77;73.42;101071.34;1648900;85;21766;-85
2021/05/25 00:37:57;;;;;;;14.40;9.00;;;;;;;12.73;73.55;101070.05;1659649;85;21084;-87
2021/05/25 00:40:23;;;;;;;19.00;8.90;;;;;;;12.75;73.51;101074.70;1652577;85;21768;-87
2021/05/25 00:42:49;;;;;;;;;;;;;;;12.80;73.29;101064.29;1649497;85;21192;-86
2021/05/25 00:45:16;;;;;;;15.58;9.80;;;;;;;12.82;73.26;101070.28;1641627;86;20268;-87
2021/05/25 00:47:43;;;;;;;14.55;10.20;;;;;;;12.74;73.39;101073.06;1655336;85;22146;-86
2021/05/25 00:50:15;;;;;;;;;;;;;;;12.65;73.48;101076.33;1670989;85;21638;-86
2021/05/25 00:52:52;;;;;;;15.05;10.18;;;;;;;12.57;73.65;101073.23;1657014;85;20240;-85
2021/05/25 00:55:25;;;;;;;;;;;;;;;12.44;73.92;101076.53;1657318;85;21113;-88
2021/05/25 00:57:53;;;;;;;14.50;9.30;;;;;;;12.42;73.87;101083.09;1656702;85;20214;-88
2021/05/25 01:00:27;;;;;;;13.53;8.85;;;;;;;12.38;73.74;101080.45;1623918;87;21275;-87
2021/05/25 01:02:53;;;;;;;14.98;9.35;;;;;;;12.33;73.94;101085.52;1624187;87;22213;-88
2021/05/25 01:05:20;;;;;;;15.63;9.70;;;;;;;12.26;74.26;101089.41;1612279;87;21143;-85
2021/05/25 01:07:46;;;;;;;10.85;9.40;;;;;;;12.19;74.41;101084.48;1602642;87;21116;-85
2021/05/25 01:10:20;;;;;;;22.15;8.98;;;;;;;12.17;74.45;101083.31;1619220;87;21650;-87
2021/05/25 01:12:53;;;;;;;16.10;10.23;;;;;;;12.20;74.27;101085.61;1585030;87;21631;-87
2021/05/25 01:15:17;;;;;;;14.78;9.83;;;;;;;12.16;74.20;101089.66;1581749;89;21772;-87
2021/05/25 01:17:43;;;;;;;13.40;8.80;;;;;;;12.06;74.36;101091.25;1579099;90;21072;-88
2021/05/25 01:20:11;;;;;;;11.55;9.03;;;;;;;12.02;74.67;101083.78;1573961;90;21167;-87
2021/05/25 01:22:37;;;;;;;14.10;8.85;;;;;;;12.04;74.73;101079.09;1582237;89;21143;-89
2021/05/25 01:25:13;;;;;;;16.60;9.25;;;;;;;12.11;74.51;101083.19;1583288;90;21217;-91
2021/05/25 01:27:40;;;;;;;14.87;8.80;;;;;;;12.15;74.55;101081.33;1568672;89;21190;-90
2021/05/25 01:30:10;;;;;;;11.22;9.28;;;;;;;12.12;74.66;101084.35;1581138;90;21932;-90
2021/05/25 01:32:37;;;;;;;18.40;8.65;;;;;;;12.13;74.84;101082.02;1582349;87;21175;-85
2021/05/25 01:35:05;;;;;;;17.12;8.50;;;;;;;12.21;74.67;101081.12;1571010;86;21040;-89
2021/05/25 01:37:32;;;;;;;13.65;7.78;;;;;;;12.32;74.27;101082.50;1579925;89;21132;-91
2021/05/25 01:40:00;;;;;;;19.37;8.90;;;;;;;12.32;74.19;101083.35;1582804;90;21809;-94
2021/05/25 01:42:40;;;;;;;12.98;8.58;;;;;;;12.31;74.37;101092.88;1601313;88;21704;-92
2021/05/25 01:45:10;;;;;;;11.33;7.65;;;;;;;12.32;74.69;101086.51;1599566;88;21788;-91
2021/05/25 01:47:36;;;;;;;14.45;8.03;;;;;;;12.43;74.54;101082.05;1603831;88;21113;-92
2021/05/25 01:50:13;;;;;;;22.70;9.40;;;;;;;12.57;73.93;101083.11;1601176;88;21195;-89
2021/05/25 01:52:55;;;;;;;;;;;;;;;12.61;73.68;101088.41;1617603;85;21097;-89
2021/05/25 01:55:37;;;;;;;17.57;8.03;;;;;;;12.57;73.64;101089.28;1612898;85;20175;-88
2021/05/25 01:58:08;;;;;;;14.93;8.88;;;;;;;12.50;73.68;101087.00;1613243;85;21128;-93
2021/05/25 02:00:37;;;;;;;18.37;9.30;;;;;;;12.48;73.64;101093.05;1615847;87;21049;-91
2021/05/25 02:03:05;;;;;;;16.82;8.78;;;;;;;12.51;73.43;101087.83;1638784;86;21655;-87
2021/05/25 02:05:35;;;;;;;12.55;8.38;;;;;;;12.56;73.04;101084.11;1653465;85;21103;-89
2021/05/25 02:08:05;;;;;;;10.15;7.80;;;;;;;12.57;72.94;101081.77;1651829;85;21095;-90
2021/05/25 02:10:40;;;;;;;18.62;8.80;;;;;;;12.53;72.95;101081.81;1655688;85;21179;-91
2021/05/25 02:13:20;;;;;;;12.85;9.60;;;;;;;12.48;72.95;101086.36;1649692;86;21172;-90
2021/05/25 02:15:51;;;;;;;14.65;8.75;;;;;;;12.44;72.86;101090.42;1651892;85;21248;-88
2021/05/25 02:18:22;;;;;;;12.13;8.53;;;;;;;12.42;72.88;101089.77;1659427;85;21151;-91
2021/05/25 02:20:51;;;;;;;14.47;9.80;;;;;;;12.44;72.77;101087.23;1652805;85;21068;-89
2021/05/25 02:23:18;;;;;;;12.45;8.73;;;;;;;12.42;72.84;101089.25;1641153;85;21013;-89
2021/05/25 02:25:44;;;;;;;13.88;9.35;;;;;;;12.37;73.01;101094.83;1652156;85;21183;-89
2021/05/25 02:28:11;;;;;;;21.33;10.78;;;;;;;12.34;73.14;101094.69;1652734;85;21204;-90
2021/05/25 02:30:39;;;;;;;15.08;9.10;;;;;;;12.30;73.27;101095.22;1649435;86;21182;-89
2021/05/25 02:33:09;;;;;;;19.07;9.33;;;;;;;12.33;73.43;101100.22;1654930;85;21088;-88
2021/05/25 02:35:37;;;;;;;16.10;9.25;;;;;;;12.43;73.43;101102.96;1615999;87;21103;-87
2021/05/25 02:38:06;;;;;;;15.75;9.58;;;;;;;12.53;73.30;101096.52;1597182;88;21143;-89
2021/05/25 02:40:41;;;;;;;15.72;10.88;;;;;;;12.60;73.30;101104.12;1616267;87;21094;-86
2021/05/25 02:43:16;;;;;;;15.68;9.70;;;;;;;12.60;73.46;101094.27;1615772;84;21167;-89
2021/05/25 02:45:43;;;;;;;15.95;10.63;;;;;;;12.63;73.51;101100.57;1619453;86;21606;-88
2021/05/25 02:48:11;;;;;;;18.90;10.48;;;;;;;12.71;73.56;101098.31;1624511;87;21103;-89
2021/05/25 02:50:39;;;;;;;11.38;8.53;;;;;;;12.88;73.14;101101.64;1623969;87;21106;-89
2021/05/25 02:53:05;;;;;;;17.62;8.83;;;;;;;13.15;72.94;101102.84;1614171;87;21108;-89
2021/05/25 02:55:36;;;;;;;11.60;9.28;;;;;;;13.59;72.44;101108.63;1625504;83;21065;-89
2021/05/25 02:58:07;;;;;;;13.83;8.65;;;;;;;14.12;70.61;101100.28;1598971;89;21147;-90
2021/05/25 03:00:43;;;;;;;11.18;8.18;;;;;;;14.72;68.69;101106.65;1621605;85;21053;-90
2021/05/25 03:03:10;;;;;;;12.58;8.88;;;;;;;15.28;67.28;101105.18;1643993;85;21100;-90
2021/05/25 03:05:40;;;;;;;10.18;8.68;;;;;;;15.85;65.03;101100.92;1621953;86;21661;-90
2021/05/25 03:08:08;;;;;;;11.68;7.85;;;;;;;16.37;63.33;101101.14;1655194;85;21052;-92
2021/05/25 03:10:40;;;;;;;7.78;7.05;;;;;;;16.88;62.11;101104.53;1655124;85;21285;-91
2021/05/25 03:13:07;;;;;;;13.18;7.85;;;;;;;17.41;60.62;101102.15;1649266;85;21280;-91
2021/05/25 03:15:41;;;;;;;10.00;7.42;;;;;;;17.96;59.34;101099.76;1653223;85;21099;-90
2021/05/25 03:18:10;;;;;;;15.88;8.08;;;;;;;18.46;57.63;101101.11;1655195;85;21008;-90
2021/05/25 03:20:37;;;;;;;12.73;7.67;;;;;;;18.93;56.14;101095.27;1663273;85;21576;-90
2021/05/25 03:23:08;;;;;;;11.65;7.30;;;;;;;19.33;54.91;101098.83;1655477;84;21022;-91
2021/05/25 03:25:35;;;;;;;10.63;6.97;;;;;;;19.68;53.80;101097.31;1654857;85;21104;-88
2021/05/25 03:28:05;;;;;;;7.45;6.47;;;;;;;19.99;52.26;101097.08;1638255;85;21275;-91
2021/05/25 03:30:31;;;;;;;9.60;6.37;;;;;;;20.28;51.61;101090.99;1653527;85;21084;-86
2021/05/25 03:33:00;;;;;;;9.15;7.78;;;;;;;20.56;50.10;101098.41;1660075;85;21105;-89
2021/05/25 03:35:28;;;;;;;9.30;5.95;;;;;;;20.77;49.86;101093.76;1662848;85;21038;-86
2021/05/25 03:37:57;;;;;;;6.85;6.22;;;;;;;21.03;48.88;101094.31;1657268;85;21032;-89
2021/05/25 03:40:24;;;;;;;9.48;5.58;;;;;;;21.31;48.62;101104.91;1642351;86;21154;-90
2021/05/25 03:42:53;;;;;;;9.78;5.72;;;;;;;21.63;47.72;101109.88;1614465;87;21061;-90
2021/05/25 03:45:24;;;;;;;8.38;6.00;;;;;;;21.92;46.58;101109.30;1629806;86;21127;-93
2021/05/25 03:47:52;;;;;;;9.25;5.97;;;;;;;22.23;45.49;101107.92;1639241;85;21066;-92
2021/05/25 03:50:21;;;;;;;9.28;5.95;;;;;;;22.58;44.66;101112.27;1638663;85;21085;-92
2021/05/25 03:52:51;;;;;;;9.85;5.33;;;;;;;22.87;43.90;101112.95;1651497;85;21132;-90
2021/05/25 04:00:40;;;;;;;4.33;3.58;;;;;;;23.69;42.28;101104.37;1619174;87;20699;-89
2021/05/25 04:03:06;;;;;;;12.15;4.78;;;;;;;23.82;42.03;101096.92;1612563;87;21100;-88
2021/05/25 04:05:33;;;;;;;6.05;4.08;;;;;;;23.92;41.55;101094.27;1625322;87;21064;-91
2021/05/25 04:07:59;;;;;;;5.72;3.70;;;;;;;23.99;41.18;101087.27;1620829;84;21053;-90
2021/05/25 04:10:25;;;;;;;4.92;3.27;;;;;;;24.12;40.35;101083.28;1621344;84;21166;-85
2021/05/25 04:12:54;;;;;;;5.47;4.00;;;;;;;24.27;39.41;101085.56;1620690;85;21124;-91
2021/05/25 04:15:23;;;;;;;11.78;4.42;;;;;;;24.45;39.09;101079.44;1627446;86;21713;-93
2021/05/25 04:17:54;;;;;;;4.53;2.85;;;;;;;24.65;38.38;101079.55;1617363;87;21076;-91
2021/05/25 04:20:23;;;;;;;7.55;2.40;;;;;;;24.79;37.22;101076.34;1617498;88;21186;-94
2021/05/25 04:22:49;;;;;;;6.92;3.15;;;;;;;24.76;37.45;101077.71;1615936;87;21063;-92
2021/05/25 04:25:15;;;;;;;10.00;3.15;;;;;;;24.90;37.50;101081.31;1627133;87;21204;-93
2021/05/25 04:27:41;;;;;;;4.45;2.80;;;;;;;25.19;36.56;101081.70;1622122;87;21068;-91
2021/05/25 04:30:11;;;;;;;5.67;2.62;;;;;;;25.33;36.82;101082.84;1619845;87;21258;-89
2021/05/25 04:32:37;;;;;;;5.37;2.08;;;;;;;25.42;35.30;101078.50;1617770;87;21593;-95
2021/05/25 04:35:07;;;;;;;5.83;2.20;;;;;;;25.50;36.50;101080.44;1625957;87;21032;-83
2021/05/25 04:37:33;;;;;;;5.00;2.65;;;;;;;25.66;35.33;101078.01;1622333;87;21092;-81
2021/05/25 04:39:59;;;;;;;4.33;2.15;;;;;;;25.84;34.77;101071.17;1627524;87;21193;-91
2021/05/25 04:42:25;;;;;;;3.27;2.35;;;;;;;25.90;34.31;101077.45;1619564;87;21130;-82
2021/05/25 04:44:51;;;;;;;5.67;2.20;;;;;;;25.86;33.64;101079.10;1618775;88;21413;-86
2021/05/25 04:47:18;;;;;;;7.03;2.22;;;;;;;25.81;33.49;101079.94;1617291;87;22536;-88
2021/05/25 04:49:45;;;;;;;9.98;1.80;;;;;;;25.59;33.84;101077.45;1605919;87;21698;-84
2021/05/25 04:52:11;;;;;;;6.30;1.62;;;;;;;25.20;34.34;101081.44;1610264;87;21408;-91
2021/05/25 04:54:39;;;;;;;4.87;0.90;;;;;;;24.90;34.27;101073.12;1622263;85;21300;-91
2021/05/25 04:57:09;;;;;;;2.37;1.20;;;;;;;24.44;33.21;101069.05;1609210;87;21124;-85
2021/05/25 04:59:36;;;;;;;3.45;1.35;;;;;;;24.01;36.08;101072.84;1617230;87;21134;-88
2021/05/25 05:02:03;;;;;;;2.33;1.05;;;;;;;24.04;35.89;101061.45;1612819;87;21082;-89
2021/05/25 05:04:29;;;;;;;4.22;0.93;;;;;;;24.10;35.66;101064.48;1618319;87;21224;-89
2021/05/25 05:06:56;;;;;;;2.55;0.70;;;;;;;24.09;35.23;101058.73;1614285;87;21135;-87
2021/05/25 05:09:24;;;;;;;2.72;0.88;;;;;;;23.86;34.21;101060.74;1604866;87;21475;-87
2021/05/25 05:11:51;;;;;;;7.83;0.85;;;;;;;23.66;34.78;101061.92;1616526;87;21114;-87
2021/05/25 05:14:32;;;;;;;;;;;;;;;;;;;;;
2021/05/25 05:16:58;;;;;;;4.40;0.53;;;;;;;23.16;35.30;101064.39;1608397;87;21155;-89
2021/05/25 05:19:24;;;;;;;4.95;0.57;;;;;;;23.05;34.19;101063.44;1654067;85;21142;-91
2021/05/25 05:21:51;;;;;;;4.95;0.50;;;;;;;22.77;35.21;101033.17;1631310;86;21427;-92
2021/05/25 05:24:21;;;;;;;0.78;0.30;;;;;;;23.02;35.68;101063.91;1663901;85;21118;-95
2021/05/25 05:26:48;;;;;;;2.95;0.40;;;;;;;22.94;35.17;101067.90;1658817;85;21198;-91
2021/05/25 05:29:14;;;;;;;4.65;0.20;;;;;;;22.83;35.31;101047.95;1652258;85;21076;-72
2021/05/25 05:31:40;;;;;;;1.67;0.28;;;;;;;22.90;34.99;101059.42;1644270;85;21216;-70
2021/05/25 05:34:07;;;;;;;1.85;0.20;;;;;;;22.84;35.08;101062.34;1660635;85;21019;-71
2021/05/25 05:36:34;;;;;;;1.90;0.20;;;;;;;22.88;34.50;101067.56;1666061;85;21105;-76
2021/05/25 05:39:00;;;;;;;2.25;0.20;;;;;;;22.96;34.10;101073.90;1656705;86;21043;-72
2021/05/25 05:41:26;;;;;;;2.98;0.45;;;;;;;23.08;34.16;101068.38;1652156;86;21129;-70
2021/05/25 05:43:52;;;;;;;;;;;;;;;23.27;34.20;101067.50;1652281;86;21103;-72
2021/05/25 05:46:18;;;;;;;4.07;0.40;;;;;;;23.35;33.96;101068.41;1660091;85;20198;-77
2021/05/25 05:48:45;;;;;;;2.20;0.30;;;;;;;23.15;33.89;101071.73;1653305;85;21690;-79
2021/05/25 05:51:12;;;;;;;3.95;0.40;;;;;;;22.83;34.22;101070.20;1649156;85;21615;-78
2021/05/25 05:53:38;;;;;;;1.15;0.30;;;;;;;22.39;34.48;101066.90;1658092;85;21202;-79
2021/05/25 05:56:05;;;;;;;4.25;0.98;;;;;;;21.92;35.41;101063.16;1657090;85;22359;-83
2021/05/25 05:58:31;;;;;;;2.02;0.30;;;;;;;21.68;36.41;101057.05;1661407;85;21189;-78
2021/05/25 06:00:57;;;;;;;2.00;0.40;;;;;;;21.85;35.74;101058.42;1644940;85;21141;-78
2021/05/25 06:03:23;;;;;;;;;;;;;;;22.06;35.41;101052.27;1655008;85;21272;-78
2021/05/25 06:05:53;;;;;;;0.20;0.15;;;;;;;22.29;35.55;101044.49;1625182;87;20217;-87
2021/05/25 06:08:22;;;;;;;6.62;0.20;;;;;;;22.46;34.65;101047.72;1612266;87;21107;-83
2021/05/25 06:10:51;;;;;;;1.57;0.10;;;;;;;22.39;34.74;101019.91;1614257;87;21403;-81
2021/05/25 06:13:23;;;;;;;4.03;0.30;;;;;;;22.70;35.01;101037.45;1613106;87;21220;-82
2021/05/25 06:15:52;;;;;;;5.28;0.50;;;;;;;23.05;34.23;101037.61;1611001;88;21692;-80
2021/05/25 06:18:19;;;;;;;2.87;0.55;;;;;;;23.36;33.75;101033.34;1602762;88;21171;-84
2021/05/25 06:20:45;;;;;;;0.85;0.30;;;;;;;23.63;33.49;101022.97;1634698;86;21647;-81
2021/05/25 06:27:00;;;;;;;0.50;0.50;;;;;;;23.63;32.79;101029.77;1582887;84;21157;-93
2021/05/25 06:29:30;;;;;;;1.55;0.60;;;;;;;23.20;34.07;101027.45;1631141;86;21110;-88
2021/05/25 06:32:03;;;;;;;2.35;0.82;;;;;;;22.92;34.96;101025.20;1606461;86;21154;-88
2021/05/25 06:34:34;;;;;;;1.60;0.40;;;;;;;22.95;36.05;101017.91;1640452;86;21194;-93
2021/05/25 06:37:13;;;;;;;3.77;0.50;;;;;;;23.22;34.87;101022.57;1646255;85;21118;-89
2021/05/25 06:39:38;;;;;;;1.65;0.20;;;;;;;23.01;35.78;101014.16;1642263;86;21147;-90
2021/05/25 06:42:05;;;;;;;1.17;0.20;;;;;;;22.88;35.77;101015.91;1647776;85;21091;-90
2021/05/25 06:44:33;;;;;;;23.90;5.90;;;;;;;22.92;36.08;101004.30;1646945;86;21094;-92
2021/05/25 06:47:12;;;;;;;34.45;6.12;;;;;;;23.06;36.25;101001.20;1644690;86;21119;-88
2021/05/25 06:49:44;;;;;;;3.90;0.30;;;;;;;23.26;35.85;101001.94;1631405;86;21062;-87
2021/05/25 06:52:11;;;;;;;1.98;0.60;;;;;;;23.44;35.88;100993.95;1634513;86;21153;-88
2021/05/25 06:54:38;;;;;;;14.87;2.22;;;;;;;23.53;35.89;100993.77;1635689;86;21139;-87
2021/05/25 06:57:05;;;;;;;6.92;1.25;;;;;;;23.51;35.86;100992.66;1582899;88;21155;-89
2021/05/25 06:59:33;;;;;;;7.53;0.98;;;;;;;23.49;35.94;100998.09;1609111;87;21298;-87
2021/05/25 07:02:00;;;;;;;13.78;3.37;;;;;;;23.48;35.87;100995.89;1630510;87;21145;-89
2021/05/25 07:04:26;;;;;;;8.00;1.17;;;;;;;23.36;35.08;100989.81;1634313;86;21189;-88
2021/05/25 07:06:52;;;;;;;3.00;0.33;;;;;;;23.09;34.53;100998.80;1633370;86;21076;-89
2021/05/25 07:09:19;;;;;;;4.33;0.68;;;;;;;23.03;33.91;101009.83;1613312;87;21103;-92
2021/05/25 07:11:50;;;;;;;22.95;5.78;;;;;;;22.99;34.39;101013.59;1637483;86;21154;-87
2021/05/25 07:14:21;;;;;;;27.62;5.75;;;;;;;23.05;34.99;101004.44;1628526;85;21157;-91
2021/05/25 07:16:47;;;;;;;12.80;2.47;;;;;;;23.10;35.51;101010.48;1631969;87;21163;-92
2021/05/25 07:19:15;;;;;;;3.45;0.50;;;;;;;23.25;34.84;101010.64;1640022;87;21297;-86
2021/05/25 07:21:41;;;;;;;6.87;1.20;;;;;;;23.45;34.34;100997.79;1616871;87;21250;-90
2021/05/25 07:24:08;;;;;;;1.70;0.20;;;;;;;23.62;34.29;101000.38;1617650;86;21203;-91
2021/05/25 07:26:34;;;;;;;0.95;0.20;;;;;;;23.42;32.89;101002.38;1626198;86;21831;-90
2021/05/25 07:29:00;;;;;;;1.95;0.23;;;;;;;23.29;33.94;101000.89;1624780;86;21206;-87
2021/05/25 07:31:27;;;;;;;3.52;0.10;;;;;;;22.92;33.97;101001.58;1631104;86;21684;-88
2021/05/25 07:33:53;;;;;;;1.98;0.20;;;;;;;22.68;34.11;101004.28;1632385;86;21088;-88
2021/05/25 07:36:19;;;;;;;0.70;0.10;;;;;;;22.54;34.67;101007.89;1657643;85;21097;-88
2021/05/25 07:38:46;;;;;;;0.10;0.00;;;;;;;22.46;34.18;101021.38;1650327;85;21080;-89
2021/05/25 07:41:14;;;;;;;1.37;0.20;;;;;;;22.09;33.75;101026.50;1643833;85;21100;-89
2021/05/25 07:43:40;;;;;;;1.17;0.15;;;;;;;21.76;34.79;101024.10;1650053;85;21322;-88
2021/05/25 07:46:07;;;;;;;0.20;0.10;;;;;;;21.63;35.91;101016.29;1642249;85;21563;-91
2021/05/25 07:48:36;;;;;;;1.70;0.25;;;;;;;21.64;35.68;101011.13;1645675;85;21017;-89
2021/05/25 07:51:03;;;;;;;0.40;0.10;;;;;;;21.57;36.68;101003.17;1643493;85;21688;-88
2021/05/25 07:53:31;;;;;;;2.60;0.10;;;;;;;21.48;36.65;100999.22;1651594;85;21072;-87
2021/05/25 07:55:57;;;;;;;8.73;1.37;;;;;;;21.48;34.84;101004.09;1663756;82;21005;-91
2021/05/25 07:58:24;;;;;;;;;;;;;;;21.53;34.24;101012.33;1656646;83;21162;-90
2021/05/25 08:00:53;;;;;;;0.57;0.10;;;;;;;21.56;34.58;101009.11;1643563;84;20227;-91
2021/05/25 08:03:21;;;;;;;0.30;0.20;;;;;;;21.57;35.28;100995.84;1648189;86;21092;-89
2021/05/25 08:05:50;;;;;;;0.72;0.00;;;;;;;21.57;35.35;100996.39;1658469;84;21026;-91
2021/05/25 08:08:16;;;;;;;0.30;0.10;;;;;;;21.46;33.08;100995.39;1629204;85;21163;-84
2021/05/25 08:10:44;;;;;;;1.57;0.03;;;;;;;21.38;34.13;101001.19;1646122;85;21084;-92
2021/05/25 08:13:10;;;;;;;0.75;0.20;;;;;;;21.23;35.31;100989.53;1656266;83;21323;-86
2021/05/25 08:15:39;;;;;;;0.88;0.20;;;;;;;21.15;36.42;100995.33;1652726;83;21053;-89
2021/05/25 08:20:35;;;;;;;0.68;0.10;;;;;;;21.14;36.70;100985.02;1654467;85;21245;-89
2021/05/25 08:23:04;;;;;;;1.52;0.20;;;;;;;21.14;36.60;100982.86;1651087;85;21093;-85
2021/05/25 08:25:32;;;;;;;13.68;2.25;;;;;;;21.13;36.40;100979.30;1644379;85;21064;-82
2021/05/25 08:28:02;;;;;;;21.70;4.60;;;;;;;21.18;35.79;100984.83;1640865;85;21272;-81
2021/05/25 08:30:32;;;;;;;2.70;0.70;;;;;;;21.22;35.43;100987.06;1651543;85;21168;-85
2021/05/25 08:33:00;;;;;;;2.37;0.20;;;;;;;21.19;35.75;100973.44;1647065;85;21057;-80
2021/05/25 08:35:34;;;;;;;0.68;0.10;;;;;;;21.15;36.25;100976.35;1649782;85;21046;-82
2021/05/25 08:37:59;;;;;;;9.85;1.40;;;;;;;21.14;37.38;100979.61;1645097;86;21612;-82
2021/05/25 08:40:28;;;;;;;11.63;2.00;;;;;;;21.22;37.24;100966.73;1645035;85;21774;-82
2021/05/25 08:42:54;;;;;;;2.50;0.20;;;;;;;21.29;36.54;100963.34;1633756;85;21081;-81
2021/05/25 08:45:23;;;;;;;1.25;0.10;;;;;;;21.28;36.13;100963.03;1628915;86;21107;-81
2021/05/25 08:47:51;;;;;;;0.30;0.10;;;;;;;21.19;36.46;100959.88;1615381;86;21134;-82
2021/05/25 08:50:21;;;;;;;0.95;0.10;;;;;;;21.12;36.38;100962.77;1638686;86;21154;-81
2021/05/25 08:52:48;;;;;;;2.27;0.15;;;;;;;21.06;37.37;100954.77;1663672;86;21035;-80
2021/05/25 08:57:42;;;;;;;1.02;0.13;;;;;;;21.26;36.76;100946.19;1647145;79;22882;-82
2021/05/25 09:00:10;;;;;;;5.08;0.10;;;;;;;21.31;36.99;100950.36;1628693;86;21205;-82
2021/05/25 09:02:36;;;;;;;0.25;0.10;;;;;;;21.42;36.16;100949.45;1651101;84;21103;-82
2021/05/25 09:05:14;;;;;;;4.25;0.10;;;;;;;21.49;35.92;100947.45;1642322;84;21059;-82
2021/05/25 09:07:49;;;;;;;3.12;0.10;;;;;;;21.51;34.56;100950.73;1654182;84;21078;-80
2021/05/25 09:10:35;;;;;;;1.12;0.10;;;;;;;21.53;34.53;100936.89;1645156;84;21349;-82
2021/05/25 09:13:04;;;;;;;0.13;0.00;;;;;;;21.57;36.56;100952.45;1680599;83;21180;-81
2021/05/25 09:15:45;;;;;;;3.75;0.68;;;;;;;21.40;36.79;100944.81;1687378;83;21082;-82
2021/05/25 09:18:17;;;;;;;0.35;0.10;;;;;;;21.36;36.46;100947.70;1691765;83;21149;-81
2021/05/25 09:20:54;;;;;;;0.10;0.00;;;;;;;21.25;34.92;100957.58;1696844;83;21178;-82
2021/05/25 09:23:43;;;;;;;0.42;0.00;;;;;;;21.23;34.33;100966.48;1658643;83;21785;-82
2021/05/25 09:26:34;;;;;;;1.35;0.10;;;;;;;21.18;35.12;100959.07;1634174;87;21135;-82
2021/05/25 09:29:08;;;;;;;2.12;0.20;;;;;;;21.16;35.58;100953.61;1634543;87;21189;-81
2021/05/25 09:31:50;;;;;;;2.95;0.40;;;;;;;21.17;35.98;100950.67;1636264;87;21175;-83
2021/05/25 09:34:21;;;;;;;0.20;0.00;;;;;;;21.19;36.86;100958.53;1646858;84;21100;-82
2021/05/25 09:37:04;;;;;;;1.17;0.20;;;;;;;21.08;37.60;100935.86;1665834;84;21600;-81
2021/05/25 09:39:44;;;;;;;0.45;0.10;;;;;;;21.10;37.65;100939.15;1667223;85;21875;-81
2021/05/25 09:42:14;;;;;;;0.10;0.10;;;;;;;21.17;36.60;100935.76;1662262;84;21063;-82
2021/05/25 09:45:06;;;;;;;0.30;0.10;;;;;;;21.14;35.93;100938.13;1655944;84;21088;-81
2021/05/25 09:47:43;;;;;;;0.20;0.13;;;;;;;21.01;36.48;100933.83;1621346;87;21691;-81
2021/05/25 09:50:15;;;;;;;0.17;0.10;;;;;;;20.92;36.40;100927.16;1594566;88;21126;-81
2021/05/25 09:53:19;;;;;;;0.47;0.10;;;;;;;20.94;37.02;100913.64;1623026;87;21115;-80
2021/05/25 09:56:00;;;;;;;0.65;0.10;;;;;;;21.06;37.35;100923.09;1629687;86;21085;-82
2021/05/25 09:58:37;;;;;;;0.40;0.10;;;;;;;21.16;37.29;100930.58;1670492;84;21116;-81
2021/05/25 10:01:08;;;;;;;0.50;0.10;;;;;;;21.17;37.88;100930.84;1660983;84;21608;-81
2021/05/25 10:03:47;;;;;;;0.20;0.10;;;;;;;21.07;37.33;100918.48;1652636;85;21584;-82
2021/05/25 10:06:16;;;;;;;0.23;0.00;;;;;;;21.03;35.96;100911.37;1642691;86;21129;-82
2021/05/25 10:08:45;;;;;;;1.75;0.10;;;;;;;20.98;37.21;100924.82;1663403;86;21071;-81
2021/05/25 10:11:17;;;;;;;0.68;0.10;;;;;;;20.97;37.48;100921.84;1644989;85;21129;-82
2021/05/25 10:13:46;;;;;;;0.20;0.00;;;;;;;21.05;37.52;100907.88;1663193;85;21290;-82
2021/05/25 10:16:15;;;;;;;0.55;0.10;;;;;;;21.04;39.28;100880.51;1662431;85;21146;-85
2021/05/25 10:21:13;;;;;;;1.62;0.10;;;;;;;21.35;37.37;100910.83;1658618;85;21154;-84
2021/05/25 10:23:43;;;;;;;1.17;0.17;;;;;;;21.39;37.77;100912.79;1635468;85;21686;-82
2021/05/25 10:26:17;;;;;;;0.35;0.20;;;;;;;21.42;37.77;100907.94;1629886;86;21162;-84
2021/05/25 10:28:52;;;;;;;0.65;0.10;;;;;;;21.41;37.53;100893.56;1630119;86;21091;-83
2021/05/25 10:31:36;;;;;;;0.10;0.10;;;;;;;21.45;38.16;100901.52;1643665;86;21049;-83
2021/05/25 10:34:26;;;;;;;0.45;0.00;;;;;;;21.46;39.01;100888.80;1624221;85;21605;-81
2021/05/25 10:36:58;;;;;;;1.98;0.10;;;;;;;21.36;37.59;100871.78;1581980;88;21630;-82
2021/05/25 10:39:40;;;;;;;0.60;0.10;;;;;;;21.19;37.53;100882.12;1636828;86;21111;-80
2021/05/25 10:42:27;;;;;;;0.62;0.00;;;;;;;21.15;38.07;100873.34;1622703;87;21073;-81
2021/05/25 10:45:15;;;;;;;0.30;0.10;;;;;;;21.16;39.20;100880.42;1601443;87;21690;-84
2021/05/25 10:48:04;;;;;;;0.72;0.20;;;;;;;21.22;39.05;100875.38;1660865;85;21658;-81
2021/05/25 10:50:37;;;;;;;0.20;0.08;;;;;;;21.23;39.86;100870.77;1618232;87;21648;-81
2021/05/25 10:53:08;;;;;;;0.13;0.10;;;;;;;21.31;40.22;100869.83;1637944;87;21110;-82
2021/05/25 10:55:42;;;;;;;0.33;0.10;;;;;;;21.41;40.66;100857.50;1623551;86;21052;-94
2021/05/25 10:58:31;;;;;;;0.20;0.00;;;;;;;21.55;39.85;100852.88;1659725;85;21129;-83
2021/05/25 11:01:03;;;;;;;0.20;0.10;;;;;;;21.61;40.13;100849.70;1648599;85;21036;-82
2021/05/25 11:03:30;;;;;;;2.72;0.10;;;;;;;21.57;39.99;100877.05;1640231;86;21780;-83
2021/05/25 11:06:02;;;;;;;0.98;0.35;;;;;;;21.55;40.64;100871.86;1646215;86;21111;-83
2021/05/25 11:08:33;;;;;;;0.60;0.20;;;;;;;21.58;40.62;100851.00;1652691;85;21128;-83
2021/05/25 11:11:15;;;;;;;0.10;0.10;;;;;;;21.71;40.25;100859.33;1641965;85;21707;-81
2021/05/25 11:13:51;;;;;;;0.93;0.35;;;;;;;21.83;39.96;100855.17;1647432;86;21195;-82
2021/05/25 11:16:37;;;;;;;3.08;0.10;;;;;;;21.66;39.73;100819.94;1647458;85;21143;-81
2021/05/25 11:19:11;;;;;;;1.30;0.10;;;;;;;21.80;40.06;100849.42;1634352;86;21756;-80
2021/05/25 11:24:46;;;;;;;0.10;0.10;;;;;;;21.85;40.04;100845.40;1594597;86;21193;-82
2021/05/25 11:27:34;;;;;;;0.98;0.23;;;;;;;21.95;39.62;100836.86;1573959;89;21178;-82
2021/05/25 11:30:11;;;;;;;0.55;0.10;;;;;;;22.01;39.42;100830.15;1607937;87;21110;-84
2021/05/25 11:32:47;;;;;;;2.92;0.20;;;;;;;21.97;39.70;100825.22;1597625;87;21434;-81
2021/05/25 11:35:24;;;;;;;0.55;0.10;;;;;;;22.03;39.05;100822.03;1591071;88;21081;-80
2021/05/25 11:37:58;;;;;;;1.07;0.20;;;;;;;21.99;38.82;100826.33;1598277;89;21104;-81
2021/05/25 11:40:35;;;;;;;2.00;0.00;;;;;;;21.94;39.12;100820.31;1611864;87;21230;-81
2021/05/25 11:43:06;;;;;;;0.28;0.10;;;;;;;21.96;40.07;100811.89;1621986;88;21041;-81
2021/05/25 11:45:32;;;;;;;0.50;0.10;;;;;;;22.02;39.03;100805.47;1592426;89;21329;-82
2021/05/25 11:48:08;;;;;;;0.80;0.10;;;;;;;22.02;39.58;100803.27;1636024;87;21068;-82
2021/05/25 11:50:47;;;;;;;1.80;0.25;;;;;;;21.97;39.27;100818.97;1629246;87;21040;-81
2021/05/25 11:53:22;;;;;;;0.13;0.08;;;;;;;21.90;39.98;100812.36;1631288;86;21084;-82
2021/05/25 11:55:48;;;;;;;0.42;0.10;;;;;;;21.82;39.64;100806.03;1642979;85;21238;-82
2021/05/25 11:58:14;;;;;;;0.35;0.10;;;;;;;21.76;40.03;100804.33;1658318;84;21239;-81